Andover, Ohio
Current Conditions -  °F | °C
As of 10:53 AM on Sunday 23 Nov 2014 (Local Time) from KHZY Reporting Station
Light Rain Light Rain  
Wind Chill:   Ceiling: 4700
Heat Index:   Visibility: 9mi
Dew Point:   Wind: 10mph
Humidity: 86%   Direction: 150°SSE
Pressure: 30.02"   Gusts: NA
Location:  41.61°N, 80.57°W
Report Text: KHZY 231553Z AUTO 15009KT 9SM -RA BKN047 BKN060 OVC070 07/05 A3002 RMK AO2 RAB47 PRESFR SLP169 P0000 T00720050
Loading
Personal Weather Stations






























Interactive Weather Map New forecast layout! Learn more

10-Day Weather Forecast

Advertisements
Track Severe Weather on mobile